sensor_id;sensor_type;location;lat;lon;timestamp;P1;durP1;ratioP1;P2;durP2;ratioP2
18499;SDS011;9379;52.134;11.576;2022-10-03T00:04:27;7.05;;;3.17;;
18499;SDS011;9379;52.134;11.576;2022-10-03T00:07:28;3.75;;;1.83;;
18499;SDS011;9379;52.134;11.576;2022-10-03T00:10:14;5.75;;;1.77;;
18499;SDS011;9379;52.134;11.576;2022-10-03T00:13:08;3.95;;;1.38;;
18499;SDS011;9379;52.134;11.576;2022-10-03T00:15:42;3.22;;;2.03;;
18499;SDS011;9379;52.134;11.576;2022-10-03T00:18:18;4.32;;;2.42;;
18499;SDS011;9379;52.134;11.576;2022-10-03T00:21:01;2.90;;;2.03;;
18499;SDS011;9379;52.134;11.576;2022-10-03T00:23:36;2.67;;;1.58;;
18499;SDS011;9379;52.134;11.576;2022-10-03T00:26:15;14.55;;;2.72;;
18499;SDS011;9379;52.134;11.576;2022-10-03T00:29:05;3.00;;;1.23;;
18499;SDS011;9379;52.134;11.576;2022-10-03T00:31:52;9.85;;;3.03;;
18499;SDS011;9379;52.134;11.576;2022-10-03T00:34:31;2.65;;;1.85;;
18499;SDS011;9379;52.134;11.576;2022-10-03T00:37:16;5.45;;;1.85;;
18499;SDS011;9379;52.134;11.576;2022-10-03T00:39:53;3.92;;;1.52;;
18499;SDS011;9379;52.134;11.576;2022-10-03T00:42:34;2.83;;;1.50;;
18499;SDS011;9379;52.134;11.576;2022-10-03T00:48:31;30.00;;;17.83;;
18499;SDS011;9379;52.134;11.576;2022-10-03T00:51:22;26.92;;;14.10;;
18499;SDS011;9379;52.134;11.576;2022-10-03T00:54:03;13.23;;;8.10;;
18499;SDS011;9379;52.134;11.576;2022-10-03T00:56:52;16.73;;;14.80;;
18499;SDS011;9379;52.134;11.576;2022-10-03T00:59:34;11.93;;;10.50;;
18499;SDS011;9379;52.134;11.576;2022-10-03T01:02:22;33.50;;;26.83;;
18499;SDS011;9379;52.134;11.576;2022-10-03T01:05:03;27.08;;;24.02;;
18499;SDS011;9379;52.134;11.576;2022-10-03T01:07:44;14.50;;;12.48;;
18499;SDS011;9379;52.134;11.576;2022-10-03T01:10:25;14.95;;;12.27;;
18499;SDS011;9379;52.134;11.576;2022-10-03T01:13:13;11.43;;;8.43;;
18499;SDS011;9379;52.134;11.576;2022-10-03T01:15:49;6.38;;;5.25;;
18499;SDS011;9379;52.134;11.576;2022-10-03T01:18:29;27.45;;;4.15;;
18499;SDS011;9379;52.134;11.576;2022-10-03T01:21:10;2.90;;;2.47;;
18499;SDS011;9379;52.134;11.576;2022-10-03T01:29:27;5.93;;;2.42;;
18499;SDS011;9379;52.134;11.576;2022-10-03T01:32:22;5.43;;;2.47;;
18499;SDS011;9379;52.134;11.576;2022-10-03T01:34:56;1.77;;;1.65;;
18499;SDS011;9379;52.134;11.576;2022-10-03T01:37:32;5.10;;;1.58;;
18499;SDS011;9379;52.134;11.576;2022-10-03T01:40:12;6.13;;;3.03;;
18499;SDS011;9379;52.134;11.576;2022-10-03T01:42:53;1.88;;;1.77;;
18499;SDS011;9379;52.134;11.576;2022-10-03T01:45:30;5.43;;;1.52;;
18499;SDS011;9379;52.134;11.576;2022-10-03T01:48:07;3.88;;;1.67;;
18499;SDS011;9379;52.134;11.576;2022-10-03T01:50:43;4.75;;;2.05;;
18499;SDS011;9379;52.134;11.576;2022-10-03T01:53:18;8.35;;;3.05;;
18499;SDS011;9379;52.134;11.576;2022-10-03T01:55:55;7.07;;;2.95;;
18499;SDS011;9379;52.134;11.576;2022-10-03T01:58:29;6.22;;;2.42;;
18499;SDS011;9379;52.134;11.576;2022-10-03T02:01:08;6.05;;;2.08;;
18499;SDS011;9379;52.134;11.576;2022-10-03T02:03:43;10.02;;;1.55;;
18499;SDS011;9379;52.134;11.576;2022-10-03T02:06:18;6.03;;;1.80;;
18499;SDS011;9379;52.134;11.576;2022-10-03T02:08:53;2.03;;;1.55;;
18499;SDS011;9379;52.134;11.576;2022-10-03T02:11:29;1.95;;;1.05;;
18499;SDS011;9379;52.134;11.576;2022-10-03T02:14:05;7.45;;;1.50;;
18499;SDS011;9379;52.134;11.576;2022-10-03T02:16:43;4.18;;;1.90;;
18499;SDS011;9379;52.134;11.576;2022-10-03T02:19:20;5.00;;;1.67;;
18499;SDS011;9379;52.134;11.576;2022-10-03T02:21:50;3.10;;;2.22;;
18499;SDS011;9379;52.134;11.576;2022-10-03T02:24:24;1.48;;;1.38;;
18499;SDS011;9379;52.134;11.576;2022-10-03T02:30:09;2.03;;;1.30;;
18499;SDS011;9379;52.134;11.576;2022-10-03T02:35:57;3.78;;;1.35;;
18499;SDS011;9379;52.134;11.576;2022-10-03T02:38:58;2.40;;;1.85;;
18499;SDS011;9379;52.134;11.576;2022-10-03T02:48:13;4.65;;;2.88;;
18499;SDS011;9379;52.134;11.576;2022-10-03T02:50:59;4.63;;;1.90;;
18499;SDS011;9379;52.134;11.576;2022-10-03T02:53:56;6.80;;;2.40;;
18499;SDS011;9379;52.134;11.576;2022-10-03T03:02:58;5.85;;;1.63;;
18499;SDS011;9379;52.134;11.576;2022-10-03T03:05:43;3.38;;;1.63;;
18499;SDS011;9379;52.134;11.576;2022-10-03T03:08:49;6.95;;;2.00;;
18499;SDS011;9379;52.134;11.576;2022-10-03T03:17:55;8.55;;;3.00;;
18499;SDS011;9379;52.134;11.576;2022-10-03T03:20:31;6.93;;;3.45;;
18499;SDS011;9379;52.134;11.576;2022-10-03T03:23:24;6.75;;;3.35;;
18499;SDS011;9379;52.134;11.576;2022-10-03T03:26:06;2.97;;;2.22;;
18499;SDS011;9379;52.134;11.576;2022-10-03T03:28:45;3.42;;;3.13;;
18499;SDS011;9379;52.134;11.576;2022-10-03T03:31:19;6.85;;;3.25;;
18499;SDS011;9379;52.134;11.576;2022-10-03T03:33:57;8.80;;;3.42;;
18499;SDS011;9379;52.134;11.576;2022-10-03T03:36:34;2.00;;;1.60;;
18499;SDS011;9379;52.134;11.576;2022-10-03T03:39:11;3.13;;;1.85;;
18499;SDS011;9379;52.134;11.576;2022-10-03T03:41:50;5.15;;;1.90;;
18499;SDS011;9379;52.134;11.576;2022-10-03T03:47:35;3.35;;;1.45;;
18499;SDS011;9379;52.134;11.576;2022-10-03T03:50:20;10.85;;;3.78;;
18499;SDS011;9379;52.134;11.576;2022-10-03T03:53:23;3.33;;;2.45;;
18499;SDS011;9379;52.134;11.576;2022-10-03T03:56:08;5.70;;;3.53;;
18499;SDS011;9379;52.134;11.576;2022-10-03T03:58:46;3.30;;;1.42;;
18499;SDS011;9379;52.134;11.576;2022-10-03T04:01:31;2.85;;;1.73;;
18499;SDS011;9379;52.134;11.576;2022-10-03T04:04:11;7.43;;;3.30;;
18499;SDS011;9379;52.134;11.576;2022-10-03T04:06:51;4.00;;;1.40;;
18499;SDS011;9379;52.134;11.576;2022-10-03T04:09:40;1.95;;;1.60;;
18499;SDS011;9379;52.134;11.576;2022-10-03T04:12:25;2.30;;;1.45;;
18499;SDS011;9379;52.134;11.576;2022-10-03T04:15:08;3.63;;;1.60;;
18499;SDS011;9379;52.134;11.576;2022-10-03T04:18:01;2.67;;;1.88;;
18499;SDS011;9379;52.134;11.576;2022-10-03T04:21:11;3.40;;;1.50;;
18499;SDS011;9379;52.134;11.576;2022-10-03T04:23:55;4.38;;;1.90;;
18499;SDS011;9379;52.134;11.576;2022-10-03T04:26:40;7.60;;;2.03;;
18499;SDS011;9379;52.134;11.576;2022-10-03T04:32:15;5.38;;;1.55;;
18499;SDS011;9379;52.134;11.576;2022-10-03T04:34:56;5.85;;;1.85;;
18499;SDS011;9379;52.134;11.576;2022-10-03T04:37:40;4.55;;;1.42;;
18499;SDS011;9379;52.134;11.576;2022-10-03T04:40:23;4.80;;;1.75;;
18499;SDS011;9379;52.134;11.576;2022-10-03T04:43:02;3.92;;;1.33;;
18499;SDS011;9379;52.134;11.576;2022-10-03T04:45:42;3.83;;;1.42;;
18499;SDS011;9379;52.134;11.576;2022-10-03T04:48:23;4.38;;;2.08;;
18499;SDS011;9379;52.134;11.576;2022-10-03T04:51:01;5.45;;;1.20;;
18499;SDS011;9379;52.134;11.576;2022-10-03T04:53:38;4.28;;;1.35;;
18499;SDS011;9379;52.134;11.576;2022-10-03T04:56:28;5.03;;;1.55;;
18499;SDS011;9379;52.134;11.576;2022-10-03T04:59:09;7.05;;;2.17;;
18499;SDS011;9379;52.134;11.576;2022-10-03T05:01:54;2.17;;;1.25;;
18499;SDS011;9379;52.134;11.576;2022-10-03T05:04:28;5.18;;;1.30;;
18499;SDS011;9379;52.134;11.576;2022-10-03T05:07:03;1.70;;;1.60;;
18499;SDS011;9379;52.134;11.576;2022-10-03T05:09:35;7.30;;;1.85;;
18499;SDS011;9379;52.134;11.576;2022-10-03T05:12:09;2.25;;;1.73;;
18499;SDS011;9379;52.134;11.576;2022-10-03T05:14:46;6.03;;;1.52;;
18499;SDS011;9379;52.134;11.576;2022-10-03T05:17:27;3.28;;;1.73;;
18499;SDS011;9379;52.134;11.576;2022-10-03T05:23:06;2.88;;;1.23;;
18499;SDS011;9379;52.134;11.576;2022-10-03T05:25:46;2.17;;;1.35;;
18499;SDS011;9379;52.134;11.576;2022-10-03T05:28:21;9.13;;;2.95;;
18499;SDS011;9379;52.134;11.576;2022-10-03T05:30:57;8.13;;;2.28;;
18499;SDS011;9379;52.134;11.576;2022-10-03T05:33:39;5.35;;;2.08;;
18499;SDS011;9379;52.134;11.576;2022-10-03T05:36:14;2.58;;;2.15;;
18499;SDS011;9379;52.134;11.576;2022-10-03T05:41:51;5.38;;;2.00;;
18499;SDS011;9379;52.134;11.576;2022-10-03T05:44:21;2.40;;;1.77;;
18499;SDS011;9379;52.134;11.576;2022-10-03T05:47:00;6.22;;;3.92;;
18499;SDS011;9379;52.134;11.576;2022-10-03T05:50:00;5.32;;;1.92;;
18499;SDS011;9379;52.134;11.576;2022-10-03T05:52:52;4.25;;;2.05;;
18499;SDS011;9379;52.134;11.576;2022-10-03T05:55:28;4.75;;;2.28;;
18499;SDS011;9379;52.134;11.576;2022-10-03T06:04:19;4.65;;;2.38;;
18499;SDS011;9379;52.134;11.576;2022-10-03T07:43:12;1.85;;;1.63;;
18499;SDS011;9379;52.134;11.576;2022-10-03T07:49:19;3.90;;;1.60;;
18499;SDS011;9379;52.134;11.576;2022-10-03T07:52:24;3.78;;;1.83;;
18499;SDS011;9379;52.134;11.576;2022-10-03T07:55:14;3.25;;;2.08;;
18499;SDS011;9379;52.134;11.576;2022-10-03T07:58:02;5.45;;;2.25;;
18499;SDS011;9379;52.134;11.576;2022-10-03T08:00:50;3.95;;;1.52;;
18499;SDS011;9379;52.134;11.576;2022-10-03T08:06:44;1.73;;;1.60;;
18499;SDS011;9379;52.134;11.576;2022-10-03T08:09:34;5.80;;;1.67;;
18499;SDS011;9379;52.134;11.576;2022-10-03T08:15:25;3.58;;;2.03;;
18499;SDS011;9379;52.134;11.576;2022-10-03T08:21:07;1.77;;;1.55;;
18499;SDS011;9379;52.134;11.576;2022-10-03T08:26:51;2.10;;;1.75;;
18499;SDS011;9379;52.134;11.576;2022-10-03T08:29:53;5.35;;;1.40;;
18499;SDS011;9379;52.134;11.576;2022-10-03T08:36:07;6.25;;;1.42;;
18499;SDS011;9379;52.134;11.576;2022-10-03T08:38:56;7.03;;;2.65;;
18499;SDS011;9379;52.134;11.576;2022-10-03T08:41:49;3.78;;;2.80;;
18499;SDS011;9379;52.134;11.576;2022-10-03T08:51:10;3.63;;;1.58;;
18499;SDS011;9379;52.134;11.576;2022-10-03T08:54:11;5.07;;;1.83;;
18499;SDS011;9379;52.134;11.576;2022-10-03T08:57:06;6.88;;;2.85;;
18499;SDS011;9379;52.134;11.576;2022-10-03T08:59:55;7.50;;;3.38;;
18499;SDS011;9379;52.134;11.576;2022-10-03T09:02:48;6.32;;;2.53;;
18499;SDS011;9379;52.134;11.576;2022-10-03T09:05:56;3.30;;;2.38;;
18499;SDS011;9379;52.134;11.576;2022-10-03T09:09:09;3.60;;;2.13;;
18499;SDS011;9379;52.134;11.576;2022-10-03T09:18:25;3.40;;;2.30;;
18499;SDS011;9379;52.134;11.576;2022-10-03T09:30:38;3.33;;;2.28;;
18499;SDS011;9379;52.134;11.576;2022-10-03T09:40:06;5.32;;;1.27;;
18499;SDS011;9379;52.134;11.576;2022-10-03T09:42:54;1.73;;;1.25;;
18499;SDS011;9379;52.134;11.576;2022-10-03T09:45:53;3.75;;;1.25;;
18499;SDS011;9379;52.134;11.576;2022-10-03T09:48:49;2.10;;;1.48;;
18499;SDS011;9379;52.134;11.576;2022-10-03T09:51:45;1.02;;;0.75;;
18499;SDS011;9379;52.134;11.576;2022-10-03T10:00:24;6.28;;;1.38;;
18499;SDS011;9379;52.134;11.576;2022-10-03T10:06:24;4.15;;;1.45;;
18499;SDS011;9379;52.134;11.576;2022-10-03T10:12:09;2.45;;;1.30;;
18499;SDS011;9379;52.134;11.576;2022-10-03T10:21:23;1.38;;;0.73;;
18499;SDS011;9379;52.134;11.576;2022-10-03T10:27:54;3.58;;;1.60;;
18499;SDS011;9379;52.134;11.576;2022-10-03T10:39:37;3.78;;;0.93;;
18499;SDS011;9379;52.134;11.576;2022-10-03T10:42:45;4.25;;;1.98;;
18499;SDS011;9379;52.134;11.576;2022-10-03T10:52:08;4.35;;;1.40;;
18499;SDS011;9379;52.134;11.576;2022-10-03T11:01:31;2.25;;;1.00;;
18499;SDS011;9379;52.134;11.576;2022-10-03T11:48:16;6.10;;;1.67;;
18499;SDS011;9379;52.134;11.576;2022-10-03T11:51:17;2.30;;;0.70;;
18499;SDS011;9379;52.134;11.576;2022-10-03T11:53:50;2.80;;;0.95;;
18499;SDS011;9379;52.134;11.576;2022-10-03T11:56:29;2.22;;;0.73;;
18499;SDS011;9379;52.134;11.576;2022-10-03T12:02:18;1.85;;;0.95;;
18499;SDS011;9379;52.134;11.576;2022-10-03T12:05:01;5.38;;;1.50;;
18499;SDS011;9379;52.134;11.576;2022-10-03T12:07:39;7.40;;;2.60;;
18499;SDS011;9379;52.134;11.576;2022-10-03T12:10:32;5.03;;;1.05;;
18499;SDS011;9379;52.134;11.576;2022-10-03T12:13:08;5.03;;;2.13;;
18499;SDS011;9379;52.134;11.576;2022-10-03T12:15:40;1.10;;;0.60;;
18499;SDS011;9379;52.134;11.576;2022-10-03T12:21:18;4.97;;;1.95;;
18499;SDS011;9379;52.134;11.576;2022-10-03T12:23:52;5.50;;;1.63;;
18499;SDS011;9379;52.134;11.576;2022-10-03T12:26:32;1.83;;;1.48;;
18499;SDS011;9379;52.134;11.576;2022-10-03T12:29:09;3.13;;;1.10;;
18499;SDS011;9379;52.134;11.576;2022-10-03T12:31:39;3.33;;;1.35;;
18499;SDS011;9379;52.134;11.576;2022-10-03T12:34:18;8.98;;;2.35;;
18499;SDS011;9379;52.134;11.576;2022-10-03T12:37:08;4.57;;;1.70;;
18499;SDS011;9379;52.134;11.576;2022-10-03T12:39:55;12.98;;;2.75;;
18499;SDS011;9379;52.134;11.576;2022-10-03T12:42:32;7.43;;;1.95;;
18499;SDS011;9379;52.134;11.576;2022-10-03T12:45:07;1.45;;;0.60;;
18499;SDS011;9379;52.134;11.576;2022-10-03T12:47:49;5.63;;;0.80;;
18499;SDS011;9379;52.134;11.576;2022-10-03T12:50:30;1.48;;;0.88;;
18499;SDS011;9379;52.134;11.576;2022-10-03T12:56:05;2.28;;;0.90;;
18499;SDS011;9379;52.134;11.576;2022-10-03T12:58:53;1.70;;;1.25;;
18499;SDS011;9379;52.134;11.576;2022-10-03T13:01:43;1.65;;;1.13;;
18499;SDS011;9379;52.134;11.576;2022-10-03T13:04:30;2.40;;;1.02;;
18499;SDS011;9379;52.134;11.576;2022-10-03T13:07:11;1.63;;;0.88;;
18499;SDS011;9379;52.134;11.576;2022-10-03T13:12:50;1.40;;;0.80;;
18499;SDS011;9379;52.134;11.576;2022-10-03T13:21:14;1.52;;;0.50;;
18499;SDS011;9379;52.134;11.576;2022-10-03T13:23:46;0.70;;;0.68;;
18499;SDS011;9379;52.134;11.576;2022-10-03T13:26:21;1.15;;;0.77;;
18499;SDS011;9379;52.134;11.576;2022-10-03T13:32:08;3.25;;;1.00;;
18499;SDS011;9379;52.134;11.576;2022-10-03T13:35:06;4.20;;;1.90;;
18499;SDS011;9379;52.134;11.576;2022-10-03T13:38:10;0.88;;;0.57;;
18499;SDS011;9379;52.134;11.576;2022-10-03T13:40:58;1.83;;;0.90;;
18499;SDS011;9379;52.134;11.576;2022-10-03T13:43:40;1.13;;;0.90;;
18499;SDS011;9379;52.134;11.576;2022-10-03T13:46:15;2.40;;;0.90;;
18499;SDS011;9379;52.134;11.576;2022-10-03T13:48:49;4.15;;;0.80;;
18499;SDS011;9379;52.134;11.576;2022-10-03T13:51:25;1.10;;;1.00;;
18499;SDS011;9379;52.134;11.576;2022-10-03T13:54:05;0.63;;;0.63;;
18499;SDS011;9379;52.134;11.576;2022-10-03T13:56:42;1.98;;;1.85;;
18499;SDS011;9379;52.134;11.576;2022-10-03T13:59:23;1.77;;;1.00;;
18499;SDS011;9379;52.134;11.576;2022-10-03T14:02:21;4.85;;;0.70;;
18499;SDS011;9379;52.134;11.576;2022-10-03T14:05:17;0.60;;;0.60;;
18499;SDS011;9379;52.134;11.576;2022-10-03T14:07:56;1.10;;;0.68;;
18499;SDS011;9379;52.134;11.576;2022-10-03T14:10:41;5.38;;;2.65;;
18499;SDS011;9379;52.134;11.576;2022-10-03T14:13:24;4.90;;;1.95;;
18499;SDS011;9379;52.134;11.576;2022-10-03T14:16:05;1.83;;;0.85;;
18499;SDS011;9379;52.134;11.576;2022-10-03T14:18:44;4.47;;;1.45;;
18499;SDS011;9379;52.134;11.576;2022-10-03T14:24:31;1.30;;;0.88;;
18499;SDS011;9379;52.134;11.576;2022-10-03T14:27:07;2.83;;;1.95;;
18499;SDS011;9379;52.134;11.576;2022-10-03T14:29:45;4.63;;;1.42;;
18499;SDS011;9379;52.134;11.576;2022-10-03T14:32:24;3.63;;;1.55;;
18499;SDS011;9379;52.134;11.576;2022-10-03T14:34:58;3.20;;;1.42;;
18499;SDS011;9379;52.134;11.576;2022-10-03T14:37:38;3.25;;;1.83;;
18499;SDS011;9379;52.134;11.576;2022-10-03T14:40:14;3.50;;;1.25;;
18499;SDS011;9379;52.134;11.576;2022-10-03T14:42:58;0.80;;;0.80;;
18499;SDS011;9379;52.134;11.576;2022-10-03T14:45:41;0.90;;;0.75;;
18499;SDS011;9379;52.134;11.576;2022-10-03T14:48:14;1.33;;;1.00;;
18499;SDS011;9379;52.134;11.576;2022-10-03T14:50:46;5.05;;;0.90;;
18499;SDS011;9379;52.134;11.576;2022-10-03T14:53:22;4.10;;;1.77;;
18499;SDS011;9379;52.134;11.576;2022-10-03T14:55:55;1.48;;;1.38;;
18499;SDS011;9379;52.134;11.576;2022-10-03T14:58:26;1.83;;;0.85;;
18499;SDS011;9379;52.134;11.576;2022-10-03T15:01:01;1.50;;;1.15;;
18499;SDS011;9379;52.134;11.576;2022-10-03T15:03:36;1.00;;;0.75;;
18499;SDS011;9379;52.134;11.576;2022-10-03T15:06:20;5.15;;;1.30;;
18499;SDS011;9379;52.134;11.576;2022-10-03T15:08:58;4.03;;;0.88;;
18499;SDS011;9379;52.134;11.576;2022-10-03T15:11:30;0.85;;;0.85;;
18499;SDS011;9379;52.134;11.576;2022-10-03T15:14:00;4.43;;;2.35;;
18499;SDS011;9379;52.134;11.576;2022-10-03T15:16:31;2.78;;;0.93;;
18499;SDS011;9379;52.134;11.576;2022-10-03T15:19:04;2.00;;;0.70;;
18499;SDS011;9379;52.134;11.576;2022-10-03T15:21:35;2.20;;;1.30;;
18499;SDS011;9379;52.134;11.576;2022-10-03T15:24:07;1.13;;;1.02;;
18499;SDS011;9379;52.134;11.576;2022-10-03T15:26:38;3.60;;;1.40;;
18499;SDS011;9379;52.134;11.576;2022-10-03T15:29:10;2.05;;;1.20;;
18499;SDS011;9379;52.134;11.576;2022-10-03T15:31:43;2.15;;;1.13;;
18499;SDS011;9379;52.134;11.576;2022-10-03T15:34:14;1.38;;;1.20;;
18499;SDS011;9379;52.134;11.576;2022-10-03T15:36:46;3.92;;;1.65;;
18499;SDS011;9379;52.134;11.576;2022-10-03T15:39:16;3.33;;;1.38;;
18499;SDS011;9379;52.134;11.576;2022-10-03T15:41:47;4.95;;;2.58;;
18499;SDS011;9379;52.134;11.576;2022-10-03T15:44:18;2.75;;;1.10;;
18499;SDS011;9379;52.134;11.576;2022-10-03T15:46:50;5.60;;;2.83;;
18499;SDS011;9379;52.134;11.576;2022-10-03T15:49:24;2.30;;;1.17;;
18499;SDS011;9379;52.134;11.576;2022-10-03T15:51:56;2.20;;;2.00;;
18499;SDS011;9379;52.134;11.576;2022-10-03T15:54:27;1.13;;;1.05;;
18499;SDS011;9379;52.134;11.576;2022-10-03T15:57:00;5.00;;;1.10;;
18499;SDS011;9379;52.134;11.576;2022-10-03T15:59:33;3.95;;;1.05;;
18499;SDS011;9379;52.134;11.576;2022-10-03T16:02:05;2.22;;;1.35;;
18499;SDS011;9379;52.134;11.576;2022-10-03T16:04:39;4.13;;;1.48;;
18499;SDS011;9379;52.134;11.576;2022-10-03T16:07:10;2.22;;;0.93;;
18499;SDS011;9379;52.134;11.576;2022-10-03T16:09:46;1.35;;;0.95;;
18499;SDS011;9379;52.134;11.576;2022-10-03T16:12:31;1.55;;;1.20;;
18499;SDS011;9379;52.134;11.576;2022-10-03T16:15:18;1.13;;;1.00;;
18499;SDS011;9379;52.134;11.576;2022-10-03T16:17:48;3.35;;;1.20;;
18499;SDS011;9379;52.134;11.576;2022-10-03T16:20:22;7.75;;;2.05;;
18499;SDS011;9379;52.134;11.576;2022-10-03T16:22:55;2.65;;;2.33;;
18499;SDS011;9379;52.134;11.576;2022-10-03T16:25:23;5.22;;;1.50;;
18499;SDS011;9379;52.134;11.576;2022-10-03T16:27:55;1.67;;;1.27;;
18499;SDS011;9379;52.134;11.576;2022-10-03T16:30:27;5.38;;;2.20;;
18499;SDS011;9379;52.134;11.576;2022-10-03T16:33:00;2.42;;;1.90;;
18499;SDS011;9379;52.134;11.576;2022-10-03T16:35:39;1.17;;;1.02;;
18499;SDS011;9379;52.134;11.576;2022-10-03T16:38:15;2.17;;;1.20;;
18499;SDS011;9379;52.134;11.576;2022-10-03T16:40:54;3.92;;;1.63;;
18499;SDS011;9379;52.134;11.576;2022-10-03T16:43:23;3.15;;;2.03;;
18499;SDS011;9379;52.134;11.576;2022-10-03T16:45:50;1.90;;;1.63;;
18499;SDS011;9379;52.134;11.576;2022-10-03T16:48:19;1.27;;;1.05;;
18499;SDS011;9379;52.134;11.576;2022-10-03T16:51:12;3.05;;;1.10;;
18499;SDS011;9379;52.134;11.576;2022-10-03T16:53:43;4.03;;;1.77;;
18499;SDS011;9379;52.134;11.576;2022-10-03T16:56:12;3.08;;;1.45;;
18499;SDS011;9379;52.134;11.576;2022-10-03T16:58:42;6.25;;;1.73;;
18499;SDS011;9379;52.134;11.576;2022-10-03T17:01:20;4.07;;;1.98;;
18499;SDS011;9379;52.134;11.576;2022-10-03T17:03:53;3.13;;;1.45;;
18499;SDS011;9379;52.134;11.576;2022-10-03T17:06:26;1.40;;;1.30;;
18499;SDS011;9379;52.134;11.576;2022-10-03T17:08:57;1.17;;;1.05;;
18499;SDS011;9379;52.134;11.576;2022-10-03T17:11:27;1.92;;;1.45;;
18499;SDS011;9379;52.134;11.576;2022-10-03T17:14:00;4.72;;;1.55;;
18499;SDS011;9379;52.134;11.576;2022-10-03T17:16:33;5.18;;;2.08;;
18499;SDS011;9379;52.134;11.576;2022-10-03T17:19:16;5.63;;;2.33;;
18499;SDS011;9379;52.134;11.576;2022-10-03T17:21:48;4.13;;;1.70;;
18499;SDS011;9379;52.134;11.576;2022-10-03T17:24:24;3.38;;;2.20;;
18499;SDS011;9379;52.134;11.576;2022-10-03T17:27:00;6.72;;;1.65;;
18499;SDS011;9379;52.134;11.576;2022-10-03T17:29:34;2.92;;;1.58;;
18499;SDS011;9379;52.134;11.576;2022-10-03T17:32:10;1.90;;;1.70;;
18499;SDS011;9379;52.134;11.576;2022-10-03T17:34:43;3.22;;;1.58;;
18499;SDS011;9379;52.134;11.576;2022-10-03T17:37:30;6.20;;;2.15;;
18499;SDS011;9379;52.134;11.576;2022-10-03T17:40:15;5.65;;;2.63;;
18499;SDS011;9379;52.134;11.576;2022-10-03T17:42:48;2.63;;;1.02;;
18499;SDS011;9379;52.134;11.576;2022-10-03T17:45:24;2.35;;;1.13;;
18499;SDS011;9379;52.134;11.576;2022-10-03T17:47:58;2.10;;;1.13;;
18499;SDS011;9379;52.134;11.576;2022-10-03T17:50:30;2.60;;;1.63;;
18499;SDS011;9379;52.134;11.576;2022-10-03T17:53:05;3.47;;;1.50;;
18499;SDS011;9379;52.134;11.576;2022-10-03T17:55:44;3.00;;;1.95;;
18499;SDS011;9379;52.134;11.576;2022-10-03T17:58:20;1.67;;;1.50;;
18499;SDS011;9379;52.134;11.576;2022-10-03T18:00:59;3.20;;;2.70;;
18499;SDS011;9379;52.134;11.576;2022-10-03T18:03:32;5.65;;;1.23;;
18499;SDS011;9379;52.134;11.576;2022-10-03T18:09:08;0.93;;;0.90;;
18499;SDS011;9379;52.134;11.576;2022-10-03T18:11:44;5.63;;;2.80;;
18499;SDS011;9379;52.134;11.576;2022-10-03T18:14:15;4.90;;;1.50;;
18499;SDS011;9379;52.134;11.576;2022-10-03T18:16:51;1.73;;;1.50;;
18499;SDS011;9379;52.134;11.576;2022-10-03T18:19:22;2.75;;;1.13;;
18499;SDS011;9379;52.134;11.576;2022-10-03T18:22:05;3.88;;;1.48;;
18499;SDS011;9379;52.134;11.576;2022-10-03T18:24:51;2.45;;;1.27;;
18499;SDS011;9379;52.134;11.576;2022-10-03T18:30:33;2.47;;;1.50;;
18499;SDS011;9379;52.134;11.576;2022-10-03T18:33:11;6.68;;;1.77;;
18499;SDS011;9379;52.134;11.576;2022-10-03T18:35:39;2.72;;;1.10;;
18499;SDS011;9379;52.134;11.576;2022-10-03T18:38:11;3.35;;;1.45;;
18499;SDS011;9379;52.134;11.576;2022-10-03T18:40:43;2.88;;;1.50;;
18499;SDS011;9379;52.134;11.576;2022-10-03T18:43:25;1.45;;;1.35;;
18499;SDS011;9379;52.134;11.576;2022-10-03T18:45:59;1.13;;;0.85;;
18499;SDS011;9379;52.134;11.576;2022-10-03T18:48:35;2.17;;;1.83;;
18499;SDS011;9379;52.134;11.576;2022-10-03T18:51:10;1.23;;;0.80;;
18499;SDS011;9379;52.134;11.576;2022-10-03T18:53:42;1.23;;;1.15;;
18499;SDS011;9379;52.134;11.576;2022-10-03T18:56:15;3.10;;;1.27;;
18499;SDS011;9379;52.134;11.576;2022-10-03T18:58:49;1.20;;;1.08;;
18499;SDS011;9379;52.134;11.576;2022-10-03T19:01:34;1.45;;;1.35;;
18499;SDS011;9379;52.134;11.576;2022-10-03T19:04:10;3.08;;;1.15;;
18499;SDS011;9379;52.134;11.576;2022-10-03T19:06:40;3.65;;;1.25;;
18499;SDS011;9379;52.134;11.576;2022-10-03T19:09:12;1.30;;;1.02;;
18499;SDS011;9379;52.134;11.576;2022-10-03T19:11:46;2.40;;;1.50;;
18499;SDS011;9379;52.134;11.576;2022-10-03T19:14:21;3.33;;;1.23;;
18499;SDS011;9379;52.134;11.576;2022-10-03T19:16:57;1.77;;;1.17;;
18499;SDS011;9379;52.134;11.576;2022-10-03T19:19:43;3.67;;;1.30;;
18499;SDS011;9379;52.134;11.576;2022-10-03T19:22:16;0.90;;;0.90;;
18499;SDS011;9379;52.134;11.576;2022-10-03T19:25:02;2.58;;;1.45;;
18499;SDS011;9379;52.134;11.576;2022-10-03T19:27:40;7.22;;;3.25;;
18499;SDS011;9379;52.134;11.576;2022-10-03T19:30:16;4.55;;;3.63;;
18499;SDS011;9379;52.134;11.576;2022-10-03T19:32:46;1.38;;;1.10;;
18499;SDS011;9379;52.134;11.576;2022-10-03T19:35:18;1.25;;;1.05;;
18499;SDS011;9379;52.134;11.576;2022-10-03T19:37:52;2.10;;;1.30;;
18499;SDS011;9379;52.134;11.576;2022-10-03T19:40:29;16.75;;;9.15;;
18499;SDS011;9379;52.134;11.576;2022-10-03T19:49:18;5.78;;;4.80;;
18499;SDS011;9379;52.134;11.576;2022-10-03T19:51:50;7.72;;;4.22;;
18499;SDS011;9379;52.134;11.576;2022-10-03T19:54:26;2.88;;;2.55;;
18499;SDS011;9379;52.134;11.576;2022-10-03T19:56:57;5.43;;;3.45;;
18499;SDS011;9379;52.134;11.576;2022-10-03T19:59:42;2.30;;;2.13;;
18499;SDS011;9379;52.134;11.576;2022-10-03T20:02:10;4.20;;;1.88;;
18499;SDS011;9379;52.134;11.576;2022-10-03T20:04:40;1.48;;;1.23;;
18499;SDS011;9379;52.134;11.576;2022-10-03T20:07:10;3.60;;;1.50;;
18499;SDS011;9379;52.134;11.576;2022-10-03T20:09:53;2.92;;;1.75;;
18499;SDS011;9379;52.134;11.576;2022-10-03T20:12:22;1.10;;;0.98;;
18499;SDS011;9379;52.134;11.576;2022-10-03T20:14:58;1.13;;;1.02;;
18499;SDS011;9379;52.134;11.576;2022-10-03T20:17:28;4.47;;;1.40;;
18499;SDS011;9379;52.134;11.576;2022-10-03T20:20:00;4.82;;;2.72;;
18499;SDS011;9379;52.134;11.576;2022-10-03T20:22:30;1.42;;;1.20;;
18499;SDS011;9379;52.134;11.576;2022-10-03T20:25:02;2.78;;;1.20;;
18499;SDS011;9379;52.134;11.576;2022-10-03T20:27:34;2.75;;;1.20;;
18499;SDS011;9379;52.134;11.576;2022-10-03T20:30:21;1.50;;;1.23;;
18499;SDS011;9379;52.134;11.576;2022-10-03T20:32:51;2.70;;;2.05;;
18499;SDS011;9379;52.134;11.576;2022-10-03T20:35:23;2.88;;;1.88;;
18499;SDS011;9379;52.134;11.576;2022-10-03T20:37:53;1.17;;;1.08;;
18499;SDS011;9379;52.134;11.576;2022-10-03T20:40:32;3.72;;;1.52;;
18499;SDS011;9379;52.134;11.576;2022-10-03T20:43:26;4.50;;;3.25;;
18499;SDS011;9379;52.134;11.576;2022-10-03T20:46:14;3.45;;;1.73;;
18499;SDS011;9379;52.134;11.576;2022-10-03T20:48:55;2.00;;;1.10;;
18499;SDS011;9379;52.134;11.576;2022-10-03T20:51:53;1.33;;;0.73;;
18499;SDS011;9379;52.134;11.576;2022-10-03T20:54:24;2.47;;;2.13;;
18499;SDS011;9379;52.134;11.576;2022-10-03T20:56:56;1.45;;;1.25;;
18499;SDS011;9379;52.134;11.576;2022-10-03T22:13:37;33.45;;;12.55;;
18499;SDS011;9379;52.134;11.576;2022-10-03T22:16:08;16.27;;;9.02;;
18499;SDS011;9379;52.134;11.576;2022-10-03T22:18:55;5.32;;;3.17;;
18499;SDS011;9379;52.134;11.576;2022-10-03T22:21:36;5.70;;;2.60;;
18499;SDS011;9379;52.134;11.576;2022-10-03T22:24:10;2.05;;;1.80;;
18499;SDS011;9379;52.134;11.576;2022-10-03T22:26:46;7.82;;;2.08;;
18499;SDS011;9379;52.134;11.576;2022-10-03T22:29:20;3.28;;;1.65;;
18499;SDS011;9379;52.134;11.576;2022-10-03T22:31:54;1.30;;;1.20;;
18499;SDS011;9379;52.134;11.576;2022-10-03T22:34:30;3.58;;;2.83;;
18499;SDS011;9379;52.134;11.576;2022-10-03T22:37:03;0.77;;;0.77;;
18499;SDS011;9379;52.134;11.576;2022-10-03T22:39:30;1.42;;;1.20;;